createdAt,value
2019-06-01T00:01:48.788Z,94.20
2019-06-01T00:04:18.663Z,94.20
2019-06-01T00:06:48.966Z,94.10
2019-06-01T00:09:18.784Z,94.20
2019-06-01T00:11:49.674Z,94.30
2019-06-01T00:14:19.536Z,94.30
2019-06-01T00:16:50.395Z,94.30
2019-06-01T00:19:22.014Z,94.40
2019-06-01T00:21:52.269Z,94.40
2019-06-01T00:24:22.044Z,94.50
2019-06-01T00:26:52.070Z,94.60
2019-06-01T00:29:21.795Z,94.80
2019-06-01T00:31:52.140Z,95.00
2019-06-01T00:34:21.912Z,95.30
2019-06-01T00:36:52.011Z,95.30
2019-06-01T00:39:22.000Z,95.50
2019-06-01T00:41:52.515Z,95.60
2019-06-01T00:44:22.661Z,95.70
2019-06-01T00:46:52.801Z,95.60
2019-06-01T00:49:22.534Z,95.50
2019-06-01T00:51:53.662Z,95.60
2019-06-01T00:54:23.822Z,96.00
2019-06-01T00:56:53.847Z,95.70
2019-06-01T00:59:23.733Z,95.70
2019-06-01T01:01:54.218Z,95.70
2019-06-01T01:04:24.006Z,95.70
2019-06-01T01:06:54.812Z,95.60
2019-06-01T01:09:24.905Z,95.60
2019-06-01T01:11:55.367Z,95.60
2019-06-01T01:14:25.344Z,95.60
2019-06-01T01:16:55.746Z,95.40
2019-06-01T01:19:25.574Z,95.30
2019-06-01T01:21:56.313Z,95.40
2019-06-01T01:24:26.107Z,95.50
2019-06-01T01:26:56.780Z,95.40
2019-06-01T01:29:26.545Z,95.30
2019-06-01T01:31:57.379Z,95.30
2019-06-01T01:34:27.224Z,95.40
2019-06-01T01:36:58.081Z,95.30
2019-06-01T01:39:27.823Z,95.30
2019-06-01T01:41:58.601Z,95.40
2019-06-01T01:44:28.454Z,95.40
2019-06-01T01:46:59.053Z,95.10
2019-06-01T01:49:29.106Z,95.20
2019-06-01T01:51:59.557Z,95.20
2019-06-01T01:54:29.314Z,94.90
2019-06-01T01:56:59.048Z,95.00
2019-06-01T01:59:28.723Z,95.10
2019-06-01T02:01:58.818Z,95.00
2019-06-01T02:04:28.624Z,94.90
2019-06-01T02:06:58.525Z,94.80
2019-06-01T02:09:28.188Z,94.60
2019-06-01T02:11:57.981Z,94.70
2019-06-01T02:14:27.694Z,94.60
2019-06-01T02:16:58.120Z,94.50
2019-06-01T02:19:27.805Z,94.50
2019-06-01T02:21:58.474Z,94.40
2019-06-01T02:24:28.313Z,94.30
2019-06-01T02:26:59.338Z,94.30
2019-06-01T02:29:29.245Z,94.20
2019-06-01T02:32:01.470Z,94.20
2019-06-01T02:34:30.656Z,94.20
2019-06-01T02:37:00.387Z,94.20
2019-06-01T02:39:30.379Z,94.10
2019-06-01T02:42:01.262Z,94.10
2019-06-01T02:44:31.446Z,94.00
2019-06-01T02:47:01.722Z,93.70
2019-06-01T02:49:32.916Z,93.40
2019-06-01T02:52:03.512Z,93.30
2019-06-01T02:54:33.495Z,92.90
2019-06-01T02:57:04.093Z,92.80
2019-06-01T02:59:33.894Z,92.60
2019-06-01T03:02:10.084Z,92.40
2019-06-01T03:04:35.319Z,92.30
2019-06-01T03:07:06.793Z,92.40
2019-06-01T03:09:38.495Z,92.20
2019-06-01T03:12:11.292Z,92.00
2019-06-01T03:14:44.181Z,91.40
2019-06-01T03:17:16.459Z,91.40
2019-06-01T03:19:48.490Z,91.30
2019-06-01T03:22:21.881Z,91.00
2019-06-01T03:24:55.259Z,91.00
2019-06-01T03:27:27.987Z,90.90
2019-06-01T03:29:58.178Z,90.90
2019-06-01T03:32:35.926Z,90.80
2019-06-01T03:35:00.533Z,91.10
2019-06-01T03:37:30.841Z,91.00
2019-06-01T03:40:01.080Z,91.10
2019-06-01T03:42:30.943Z,91.70
2019-06-01T03:45:01.380Z,91.80
2019-06-01T03:47:31.077Z,91.40
2019-06-01T03:50:00.825Z,90.90
2019-06-01T03:52:30.823Z,90.70
2019-06-01T03:55:01.744Z,90.50
2019-06-01T03:57:31.614Z,90.20
2019-06-01T04:00:01.477Z,90.30
2019-06-01T04:02:33.379Z,90.10
2019-06-01T04:05:03.532Z,89.70
2019-06-01T04:07:34.570Z,89.50
2019-06-01T04:10:07.815Z,89.30
2019-06-01T04:12:37.696Z,88.60
2019-06-01T04:15:11.654Z,87.90
2019-06-01T04:17:38.827Z,88.00
2019-06-01T04:20:10.086Z,87.80
2019-06-01T04:22:39.948Z,89.10
2019-06-01T04:25:12.321Z,89.60
2019-06-01T04:27:42.034Z,88.20
2019-06-01T04:30:13.584Z,88.40
2019-06-01T04:32:49.855Z,88.50
2019-06-01T04:35:14.805Z,90.00
2019-06-01T04:37:44.512Z,89.30
2019-06-01T04:40:14.341Z,90.00
2019-06-01T04:42:44.250Z,89.70
2019-06-01T04:45:14.545Z,90.50
2019-06-01T04:47:44.189Z,90.60
2019-06-01T04:50:14.859Z,89.60
2019-06-01T04:52:44.552Z,89.80
2019-06-01T04:55:15.185Z,90.20
2019-06-01T04:57:44.911Z,90.20
2019-06-01T05:00:27.094Z,90.30
2019-06-01T05:02:46.850Z,90.00
2019-06-01T05:05:16.581Z,90.10
2019-06-01T05:07:46.221Z,89.30
2019-06-01T05:10:16.654Z,89.40
2019-06-01T05:12:46.293Z,90.30
2019-06-01T05:15:16.239Z,90.40
2019-06-01T05:17:45.969Z,88.40
2019-06-01T05:20:16.649Z,89.80
2019-06-01T05:22:46.468Z,89.20
2019-06-01T05:25:17.192Z,88.80
2019-06-01T05:27:46.913Z,87.80
2019-06-01T05:30:17.658Z,87.80
2019-06-01T05:32:47.400Z,87.70
2019-06-01T05:35:18.017Z,87.20
2019-06-01T05:37:47.791Z,86.70
2019-06-01T05:40:19.787Z,88.40
2019-06-01T05:42:49.361Z,86.90
2019-06-01T05:45:19.398Z,86.10
2019-06-01T05:47:49.290Z,86.70
2019-06-01T05:50:19.184Z,84.80
2019-06-01T05:52:49.878Z,84.50
2019-06-01T05:55:19.668Z,84.30
2019-06-01T05:57:49.317Z,83.40
2019-06-01T06:00:22.217Z,81.60
2019-06-01T06:02:51.891Z,82.60
2019-06-01T06:05:22.832Z,82.30
2019-06-01T06:07:52.598Z,79.10
2019-06-01T06:10:22.254Z,78.40
2019-06-01T06:12:51.906Z,75.40
2019-06-01T06:15:21.895Z,77.00
2019-06-01T06:17:51.565Z,77.30
2019-06-01T06:20:22.178Z,76.90
2019-06-01T06:22:51.982Z,75.80
2019-06-01T06:25:21.701Z,76.30
2019-06-01T06:27:51.673Z,76.80
2019-06-01T06:30:21.313Z,77.30
2019-06-01T06:32:51.029Z,77.40
2019-06-01T06:35:21.535Z,77.60
2019-06-01T06:37:51.531Z,77.60
2019-06-01T06:40:22.140Z,77.10
2019-06-01T06:42:52.089Z,77.70
2019-06-01T06:45:22.860Z,77.10
2019-06-01T06:47:52.687Z,77.60
2019-06-01T06:50:23.568Z,77.20
2019-06-01T06:52:53.318Z,76.10
2019-06-01T06:55:24.035Z,76.90
2019-06-01T06:57:53.771Z,77.00
2019-06-01T07:00:24.791Z,75.20
2019-06-01T07:02:54.882Z,73.80
2019-06-01T07:05:25.477Z,73.50
2019-06-01T07:07:55.337Z,73.20
2019-06-01T07:10:26.229Z,71.80
2019-06-01T07:12:56.132Z,71.20
2019-06-01T07:15:26.169Z,70.10
2019-06-01T07:17:56.249Z,69.70
2019-06-01T07:20:25.954Z,69.30
2019-06-01T07:22:55.959Z,68.20
2019-06-01T07:25:26.883Z,67.80
2019-06-01T07:27:56.855Z,69.30
2019-06-01T07:30:26.647Z,69.60
2019-06-01T07:32:56.814Z,67.30
2019-06-01T07:35:26.743Z,67.20
2019-06-01T07:37:56.465Z,65.50
2019-06-01T07:40:28.783Z,65.60
2019-06-01T07:43:01.417Z,62.90
2019-06-01T07:45:35.325Z,62.60
2019-06-01T07:48:05.350Z,59.20
2019-06-01T07:50:35.493Z,57.70
2019-06-01T07:53:05.458Z,57.80
2019-06-01T07:55:35.499Z,58.70
2019-06-01T07:58:05.271Z,58.30
2019-06-01T08:00:35.012Z,56.40
2019-06-01T08:03:05.618Z,56.60
2019-06-01T08:05:35.408Z,56.40
2019-06-01T08:08:05.117Z,57.40
2019-06-01T08:10:34.778Z,57.50
2019-06-01T08:13:05.253Z,57.20
2019-06-01T08:15:35.429Z,57.10
2019-06-01T08:18:05.157Z,57.70
2019-06-01T08:20:35.147Z,59.40
2019-06-01T08:23:05.087Z,59.20
2019-06-01T08:25:35.144Z,59.00
2019-06-01T08:28:05.214Z,59.60
2019-06-01T08:30:34.932Z,58.80
2019-06-01T08:33:04.637Z,59.70
2019-06-01T08:35:37.776Z,59.20
2019-06-01T08:38:08.953Z,59.40
2019-06-01T08:40:38.700Z,58.40
2019-06-01T08:43:08.418Z,57.80
2019-06-01T08:45:38.478Z,55.70
2019-06-01T08:48:08.201Z,56.20
2019-06-01T08:50:37.859Z,56.90
2019-06-01T08:53:07.490Z,56.40
2019-06-01T08:55:37.169Z,57.20
2019-06-01T08:58:07.138Z,55.70
2019-06-01T09:00:37.200Z,55.60
2019-06-01T09:03:07.172Z,56.30
2019-06-01T09:05:36.933Z,57.60
2019-06-01T09:08:06.678Z,58.50
2019-06-01T09:10:36.377Z,58.40
2019-06-01T09:13:06.092Z,58.60
2019-06-01T09:15:35.849Z,59.10
2019-06-01T09:18:11.746Z,59.40
2019-06-01T09:20:41.582Z,59.40
2019-06-01T09:23:11.541Z,59.30
2019-06-01T09:25:48.714Z,59.40
2019-06-01T09:28:26.268Z,59.20
2019-06-01T09:31:01.905Z,59.30
2019-06-01T09:33:38.889Z,59.70
2019-06-01T09:36:10.107Z,59.60
2019-06-01T09:38:43.845Z,60.10
2019-06-01T09:41:16.105Z,59.90
2019-06-01T09:43:50.039Z,59.60
2019-06-01T09:46:20.394Z,60.10
2019-06-01T09:48:53.712Z,60.10
2019-06-01T09:51:24.690Z,60.30
2019-06-01T09:53:54.446Z,60.50
2019-06-01T09:56:24.515Z,60.60
2019-06-01T09:58:54.565Z,60.30
2019-06-01T10:01:24.702Z,60.60
2019-06-01T10:03:56.075Z,61.10
2019-06-01T10:06:25.814Z,59.80
2019-06-01T10:08:59.162Z,58.70
2019-06-01T10:11:32.524Z,59.40
2019-06-01T10:14:01.800Z,58.30
2019-06-01T10:16:32.743Z,58.80
2019-06-01T10:19:02.675Z,58.40
2019-06-01T10:21:33.869Z,58.60
2019-06-01T10:24:03.911Z,58.00
2019-06-01T10:26:37.499Z,57.00
2019-06-01T10:29:09.664Z,56.60
2019-06-01T10:31:41.437Z,56.80
2019-06-01T10:34:12.871Z,58.20
2019-06-01T10:36:46.177Z,57.80
2019-06-01T10:39:25.944Z,58.60
2019-06-01T10:41:58.875Z,57.70
2019-06-01T10:44:41.752Z,56.20
2019-06-01T10:47:09.636Z,55.10
2019-06-01T10:52:30.142Z,55.00
2019-06-01T10:55:00.124Z,55.80
2019-06-01T10:57:32.240Z,57.20
2019-06-01T11:00:06.657Z,57.00
2019-06-01T11:02:43.349Z,57.60
2019-06-01T11:05:18.468Z,58.50
2019-06-01T11:07:49.158Z,58.80
2019-06-01T11:10:29.935Z,58.40
2019-06-01T11:13:01.905Z,57.50
2019-06-01T11:15:36.923Z,58.30
2019-06-01T11:18:26.535Z,57.70
2019-06-01T11:21:05.397Z,56.70
2019-06-01T11:23:35.584Z,56.10
2019-06-01T11:26:05.486Z,55.40
2019-06-01T11:28:40.019Z,55.80
2019-06-01T11:31:09.660Z,55.70
2019-06-01T11:33:42.649Z,55.80
2019-06-01T11:36:12.737Z,54.90
2019-06-01T11:38:42.699Z,54.00
2019-06-01T11:41:12.542Z,54.30
2019-06-01T11:43:42.728Z,55.90
2019-06-01T11:46:12.913Z,55.40
2019-06-01T11:48:43.489Z,54.50
2019-06-01T11:51:13.978Z,54.10
2019-06-01T11:53:57.398Z,54.50
2019-06-01T11:56:29.074Z,53.90
2019-06-01T11:58:58.850Z,54.20
2019-06-01T12:01:28.991Z,52.40
2019-06-01T12:03:59.110Z,53.50
2019-06-01T12:06:29.077Z,53.50
2019-06-01T12:08:58.889Z,54.40
2019-06-01T12:11:33.336Z,54.30
2019-06-01T12:14:03.343Z,54.10
2019-06-01T12:16:33.066Z,53.40
2019-06-01T12:19:03.110Z,52.20
2019-06-01T12:21:33.110Z,52.70
2019-06-01T12:24:03.023Z,52.80
2019-06-01T12:26:37.129Z,53.30
2019-06-01T12:29:08.173Z,52.70
2019-06-01T12:31:40.050Z,52.40
2019-06-01T12:34:13.193Z,52.00
2019-06-01T12:36:44.660Z,52.20
2019-06-01T12:39:14.626Z,52.90
2019-06-01T12:41:45.540Z,53.10
2019-06-01T12:44:15.571Z,52.90
2019-06-01T12:46:46.812Z,52.30
2019-06-01T12:49:16.951Z,51.70
2019-06-01T12:51:47.068Z,52.50
2019-06-01T12:54:16.887Z,52.70
2019-06-01T12:56:49.306Z,52.00
2019-06-01T12:59:18.298Z,52.30
2019-06-01T13:01:49.302Z,51.70
2019-06-01T13:04:19.464Z,51.30
2019-06-01T13:06:51.998Z,52.80
2019-06-01T13:09:20.641Z,52.70
2019-06-01T13:11:51.445Z,52.20
2019-06-01T13:14:21.228Z,52.50
2019-06-01T13:17:06.253Z,53.60
2019-06-01T13:19:22.639Z,54.70
2019-06-01T13:21:52.713Z,54.30
2019-06-01T13:24:22.775Z,54.00
2019-06-01T13:26:52.860Z,54.40
2019-06-01T13:29:22.585Z,53.90
2019-06-01T13:31:52.634Z,53.20
2019-06-01T13:34:22.486Z,52.80
2019-06-01T13:36:53.015Z,52.20
2019-06-01T13:39:22.925Z,52.40
2019-06-01T13:41:53.480Z,53.40
2019-06-01T13:44:23.533Z,53.70
2019-06-01T13:46:53.731Z,53.80
2019-06-01T13:49:23.819Z,54.30
2019-06-01T13:51:54.688Z,55.00
2019-06-01T13:54:24.834Z,55.10
2019-06-01T13:56:55.211Z,55.20
2019-06-01T13:59:24.918Z,55.40
2019-06-01T14:01:55.397Z,55.10
2019-06-01T14:04:25.062Z,55.50
2019-06-01T14:06:55.495Z,56.00
2019-06-01T14:09:25.200Z,55.60
2019-06-01T14:11:55.534Z,55.90
2019-06-01T14:14:25.568Z,55.10
2019-06-01T14:16:55.730Z,54.80
2019-06-01T14:19:25.570Z,54.90
2019-06-01T14:21:55.934Z,54.50
2019-06-01T14:24:25.974Z,54.50
2019-06-01T14:26:56.291Z,54.20
2019-06-01T14:29:26.306Z,54.40
2019-06-01T14:31:57.296Z,54.40
2019-06-01T14:34:27.179Z,54.00
2019-06-01T14:36:56.973Z,53.20
2019-06-01T14:39:26.642Z,53.40
2019-06-01T14:41:57.608Z,53.20
2019-06-01T14:44:27.468Z,53.40
2019-06-01T14:47:03.735Z,53.00
2019-06-01T14:49:28.829Z,53.70
2019-06-01T14:51:58.915Z,53.20
2019-06-01T14:54:28.714Z,52.80
2019-06-01T14:56:58.372Z,53.10
2019-06-01T14:59:28.023Z,53.50
2019-06-01T15:01:58.368Z,53.60
2019-06-01T15:04:28.174Z,54.00
2019-06-01T15:06:58.596Z,54.60
2019-06-01T15:09:28.399Z,55.30
2019-06-01T15:11:58.756Z,55.50
2019-06-01T15:14:28.840Z,56.60
2019-06-01T15:16:58.586Z,56.60
2019-06-01T15:19:28.302Z,57.10
2019-06-01T15:21:58.254Z,57.70
2019-06-01T15:24:28.033Z,57.80
2019-06-01T15:26:58.981Z,58.30
2019-06-01T15:29:29.120Z,58.50
2019-06-01T15:32:00.095Z,58.90
2019-06-01T15:34:29.964Z,59.20
2019-06-01T15:36:59.747Z,59.60
2019-06-01T15:39:29.524Z,59.80
2019-06-01T15:41:59.237Z,59.70
2019-06-01T15:44:29.284Z,59.90
2019-06-01T15:46:59.715Z,60.40
2019-06-01T15:49:29.942Z,60.70
2019-06-01T15:51:59.935Z,61.00
2019-06-01T15:54:29.698Z,60.90
2019-06-01T15:57:00.612Z,61.20
2019-06-01T15:59:31.108Z,61.60
2019-06-01T16:02:01.309Z,61.50
2019-06-01T16:04:31.206Z,61.40
2019-06-01T16:07:01.432Z,61.40
2019-06-01T16:09:42.130Z,61.70
2019-06-01T16:12:03.750Z,61.60
2019-06-01T16:14:43.189Z,61.80
2019-06-01T16:17:12.884Z,61.70
2019-06-01T16:19:42.985Z,62.10
2019-06-01T16:22:15.636Z,62.60
2019-06-01T16:24:45.440Z,62.90
2019-06-01T16:27:15.214Z,63.00
2019-06-01T16:29:44.862Z,63.40
2019-06-01T16:32:14.856Z,63.50
2019-06-01T16:34:44.912Z,63.40
2019-06-01T16:37:14.740Z,63.50
2019-06-01T16:39:58.381Z,64.00
2019-06-01T16:42:16.117Z,64.30
2019-06-01T16:44:45.772Z,64.00
2019-06-01T16:47:15.786Z,63.70
2019-06-01T16:49:47.887Z,64.10
2019-06-01T16:52:18.097Z,64.20
2019-06-01T16:54:47.867Z,64.20
2019-06-01T16:57:17.878Z,64.40
2019-06-01T16:59:47.547Z,64.90
2019-06-01T17:02:17.450Z,65.10
2019-06-01T17:04:47.481Z,65.10
2019-06-01T17:07:17.243Z,65.10
2019-06-01T17:09:46.986Z,66.00
2019-06-01T17:12:17.004Z,65.20
2019-06-01T17:14:46.789Z,65.10
2019-06-01T17:17:16.755Z,64.80
2019-06-01T17:19:46.630Z,64.90
2019-06-01T17:22:16.690Z,64.80
2019-06-01T17:24:46.901Z,64.50
2019-06-01T17:27:16.748Z,64.80
2019-06-01T17:29:46.716Z,64.30
2019-06-01T17:32:24.280Z,64.30
2019-06-01T17:34:48.441Z,64.30
2019-06-01T17:37:18.496Z,64.90
2019-06-01T17:39:48.298Z,65.20
2019-06-01T17:42:18.490Z,65.10
2019-06-01T17:44:48.717Z,65.00
2019-06-01T17:47:18.713Z,65.80
2019-06-01T17:49:48.717Z,64.90
2019-06-01T17:52:18.771Z,64.90
2019-06-01T17:54:48.516Z,65.10
2019-06-01T17:57:18.268Z,65.40
2019-06-01T17:59:48.194Z,66.80
2019-06-01T18:02:18.149Z,65.90
2019-06-01T18:04:47.832Z,66.00
2019-06-01T18:07:17.909Z,66.80
2019-06-01T18:09:49.918Z,67.20
2019-06-01T18:12:19.701Z,66.90
2019-06-01T18:14:49.600Z,67.30
2019-06-01T18:17:19.353Z,67.30
2019-06-01T18:19:48.986Z,67.10
2019-06-01T18:22:19.095Z,67.10
2019-06-01T18:24:48.970Z,66.90
2019-06-01T18:27:18.743Z,67.20
2019-06-01T18:29:49.693Z,66.80
2019-06-01T18:32:19.569Z,67.40
2019-06-01T18:34:49.538Z,67.80
2019-06-01T18:37:19.331Z,67.50
2019-06-01T18:39:49.596Z,67.60
2019-06-01T18:42:21.874Z,67.20
2019-06-01T18:44:51.636Z,67.40
2019-06-01T18:47:31.883Z,67.30
2019-06-01T18:49:52.938Z,68.00
2019-06-01T18:52:22.674Z,68.50
2019-06-01T18:54:52.394Z,68.50
2019-06-01T18:57:22.450Z,68.00
2019-06-01T18:59:52.388Z,68.00
2019-06-01T19:02:22.434Z,68.10
2019-06-01T19:04:52.353Z,68.10
2019-06-01T19:07:22.330Z,67.90
2019-06-01T19:09:52.023Z,68.10
2019-06-01T19:12:24.388Z,68.00
2019-06-01T19:14:53.588Z,68.80
2019-06-01T19:17:23.430Z,68.60
2019-06-01T19:19:53.222Z,68.30
2019-06-01T19:22:22.969Z,68.30
2019-06-01T19:24:52.987Z,68.40
2019-06-01T19:27:22.890Z,68.50
2019-06-01T19:29:52.712Z,68.50
2019-06-01T19:32:22.428Z,69.70
2019-06-01T19:34:52.227Z,68.50
2019-06-01T19:37:22.877Z,68.40
2019-06-01T19:39:54.424Z,68.70
2019-06-01T19:42:24.176Z,69.80
2019-06-01T19:44:53.915Z,68.50
2019-06-01T19:47:23.629Z,69.00
2019-06-01T19:49:53.430Z,68.50
2019-06-01T19:52:23.225Z,68.90
2019-06-01T19:54:52.956Z,68.80
2019-06-01T19:57:23.961Z,69.50
2019-06-01T19:59:53.868Z,69.60
2019-06-01T20:02:33.292Z,69.90
2019-06-01T20:04:55.365Z,69.40
2019-06-01T20:07:25.158Z,69.70
2019-06-01T20:09:54.933Z,69.70
2019-06-01T20:12:24.961Z,70.30
2019-06-01T20:14:54.670Z,69.80
2019-06-01T20:17:26.398Z,70.00
2019-06-01T20:19:56.061Z,70.50
2019-06-01T20:22:25.821Z,71.10
2019-06-01T20:24:55.610Z,71.20
2019-06-01T20:27:25.624Z,71.70
2019-06-01T20:29:55.710Z,72.20
2019-06-01T20:32:25.767Z,72.40
2019-06-01T20:34:55.674Z,72.60
2019-06-01T20:37:28.458Z,72.70
2019-06-01T20:43:32.989Z,73.50
2019-06-01T20:49:07.277Z,73.30
2019-06-01T20:51:37.013Z,73.50
2019-06-01T20:54:06.917Z,73.60
2019-06-01T20:56:36.702Z,73.80
2019-06-01T20:59:06.607Z,74.40
2019-06-01T21:01:36.332Z,74.40
2019-06-01T21:04:06.094Z,74.60
2019-06-01T21:06:35.980Z,75.00
2019-06-01T21:09:08.401Z,75.30
2019-06-01T21:11:38.602Z,75.80
2019-06-01T21:14:08.455Z,76.30
2019-06-01T21:16:38.514Z,76.10
2019-06-01T21:19:08.222Z,76.20
2019-06-01T21:21:38.411Z,76.40
2019-06-01T21:24:08.198Z,76.50
2019-06-01T21:26:38.002Z,76.70
2019-06-01T21:29:07.817Z,76.40
2019-06-01T21:31:37.798Z,76.40
2019-06-01T21:34:07.709Z,76.10
2019-06-01T21:36:41.542Z,76.10
2019-06-01T21:39:09.953Z,76.90
2019-06-01T21:41:40.136Z,77.40
2019-06-01T21:44:10.308Z,78.00
2019-06-01T21:46:40.360Z,78.50
2019-06-01T21:49:10.069Z,79.20
2019-06-01T21:51:40.114Z,80.20
2019-06-01T21:54:13.037Z,81.00
2019-06-01T21:56:43.181Z,79.90
2019-06-01T21:59:13.081Z,79.70
2019-06-01T22:01:42.876Z,79.90
2019-06-01T22:04:12.976Z,80.30
2019-06-01T22:06:46.154Z,81.00
2019-06-01T22:09:14.112Z,81.50
2019-06-01T22:11:44.305Z,81.90
2019-06-01T22:14:14.604Z,82.10
2019-06-01T22:16:44.990Z,82.20
2019-06-01T22:19:17.988Z,82.30
2019-06-01T22:21:49.143Z,82.10
2019-06-01T22:24:19.731Z,81.60
2019-06-01T22:26:53.865Z,81.90
2019-06-01T22:29:26.763Z,82.50
2019-06-01T22:31:59.627Z,83.70
2019-06-01T22:34:33.674Z,83.80
2019-06-01T22:37:07.563Z,84.80
2019-06-01T22:39:40.469Z,85.30
2019-06-01T22:42:10.113Z,86.10
2019-06-01T22:44:40.127Z,86.50
2019-06-01T22:47:10.085Z,86.80
2019-06-01T22:49:45.547Z,87.20
2019-06-01T22:52:16.756Z,87.70
2019-06-01T22:54:50.180Z,87.90
2019-06-01T22:57:22.417Z,88.20
2019-06-01T22:59:53.784Z,88.20
2019-06-01T23:02:25.826Z,88.70
2019-06-01T23:05:08.153Z,88.80
2019-06-01T23:07:40.833Z,88.80
2019-06-01T23:10:13.965Z,89.20
2019-06-01T23:12:50.831Z,89.90
2019-06-01T23:15:23.299Z,90.00
2019-06-01T23:17:56.823Z,90.30
2019-06-01T23:20:32.218Z,90.40
2019-06-01T23:23:19.775Z,90.50
2019-06-01T23:25:51.282Z,90.70
2019-06-01T23:28:22.638Z,90.60
2019-06-01T23:30:54.272Z,90.60
2019-06-01T23:33:24.715Z,90.50
2019-06-01T23:36:04.925Z,90.50
2019-06-01T23:38:35.082Z,90.50
2019-06-01T23:41:05.139Z,90.70
2019-06-01T23:43:35.463Z,90.60
2019-06-01T23:46:06.961Z,90.40
2019-06-01T23:48:39.793Z,90.50
2019-06-01T23:51:09.855Z,90.60
2019-06-01T23:53:41.206Z,90.60
2019-06-01T23:56:16.104Z,90.70
2019-06-01T23:58:47.751Z,90.80
